Time;durP1;ratioP1;P1;durP2;ratioP2;P2;SDS_P1;SDS_P2;PMS_P1;PMS_P2;Temp;Humidity;BMP_temperature;BMP_pressure;BME280_temperature;BME280_humidity;BME280_pressure;Samples;Min_cycle;Max_cycle;Signal;HPM_P1;HPM_P2
2023/05/13 03:19:49;;;;;;;80.13;23.27;;;12.80;99.90;;;;;;5041863;23;20907;-85
2023/05/13 03:22:15;;;;;;;84.00;27.70;;;12.80;99.90;;;;;;4920013;29;20193;-84
2023/05/13 03:24:42;;;;;;;82.60;26.37;;;12.80;99.90;;;;;;4919968;29;20492;-84
2023/05/13 03:27:07;;;;;;;86.00;28.58;;;12.80;99.90;;;;;;4919890;29;20193;-84
2023/05/13 03:29:33;;;;;;;86.37;30.10;;;12.70;99.90;;;;;;4919842;29;20679;-85
2023/05/13 03:31:59;;;;;;;86.07;28.00;;;12.60;99.90;;;;;;4918602;29;20173;-85
2023/05/13 03:34:24;;;;;;;86.00;23.07;;;12.60;99.90;;;;;;4919538;29;20200;-85
2023/05/13 03:36:53;;;;;;;84.67;24.80;;;12.60;99.90;;;;;;4918531;29;20189;-84
2023/05/13 03:39:18;;;;;;;88.60;28.30;;;12.60;99.90;;;;;;4919837;29;20165;-85
2023/05/13 03:41:44;;;;;;;83.40;26.63;;;12.60;99.90;;;;;;4919604;29;20415;-84
2023/05/13 03:44:10;;;;;;;80.63;20.73;;;12.50;99.90;;;;;;4919571;29;20200;-84
2023/05/13 03:46:36;;;;;;;80.23;21.43;;;12.60;99.90;;;;;;4919130;29;20453;-85
2023/05/13 03:49:02;;;;;;;88.73;25.97;;;12.50;99.90;;;;;;4918280;29;20268;-84
2023/05/13 03:51:27;;;;;;;80.80;23.17;;;12.40;99.90;;;;;;4919352;29;20196;-84
2023/05/13 03:53:56;;;;;;;83.40;24.93;;;12.30;99.90;;;;;;4917899;29;20487;-84
2023/05/13 03:56:22;;;;;;;82.57;22.60;;;12.30;99.90;;;;;;4917796;29;20528;-85
2023/05/13 03:58:47;;;;;;;77.13;18.57;;;12.40;99.90;;;;;;4919718;29;20589;-85
2023/05/13 04:01:13;;;;;;;84.73;21.50;;;12.50;99.90;;;;;;4919237;29;20192;-85
2023/05/13 04:03:40;;;;;;;83.27;23.97;;;12.30;99.90;;;;;;4919559;29;20741;-85
2023/05/13 04:06:05;;;;;;;84.00;26.95;;;12.20;99.90;;;;;;4917663;29;20193;-85
2023/05/13 04:08:31;;;;;;;82.90;23.13;;;12.10;99.90;;;;;;4919238;29;20184;-84
2023/05/13 04:10:57;;;;;;;81.97;23.27;;;12.10;99.90;;;;;;4917578;29;20417;-84
2023/05/13 04:13:22;;;;;;;82.90;24.23;;;12.00;99.90;;;;;;4917645;29;20223;-85
2023/05/13 04:15:48;;;;;;;84.37;23.20;;;12.00;99.90;;;;;;4918781;29;20691;-85
2023/05/13 04:18:17;;;;;;;85.37;21.70;;;12.00;99.90;;;;;;4918858;29;20533;-84
2023/05/13 04:20:42;;;;;;;80.78;24.02;;;12.00;99.90;;;;;;4917608;29;20256;-84
2023/05/13 04:23:09;;;;;;;85.07;22.60;;;11.90;99.90;;;;;;4919015;29;20190;-84
2023/05/13 04:25:36;;;;;;;84.18;23.23;;;11.90;99.90;;;;;;4918629;29;20182;-85
2023/05/13 04:28:01;;;;;;;88.55;27.15;;;12.00;99.90;;;;;;4917352;29;20679;-85
2023/05/13 04:30:30;;;;;;;82.70;24.53;;;12.10;99.90;;;;;;4917498;29;20181;-84
2023/05/13 04:32:58;;;;;;;84.60;23.23;;;12.20;99.90;;;;;;4916675;29;20189;-85
2023/05/13 04:35:24;;;;;;;86.13;23.42;;;12.20;99.90;;;;;;4918340;29;20189;-85
2023/05/13 04:37:49;;;;;;;82.73;26.17;;;12.40;99.90;;;;;;4917251;29;20654;-84
2023/05/13 04:40:15;;;;;;;88.80;23.27;;;12.50;99.90;;;;;;4918458;29;20169;-84
2023/05/13 04:42:41;;;;;;;83.00;26.43;;;12.70;99.90;;;;;;4918489;29;20580;-85
2023/05/13 04:45:09;;;;;;;85.73;26.67;;;13.00;99.90;;;;;;4916967;29;20425;-85
2023/05/13 04:47:40;;;;;;;79.43;20.70;;;13.10;99.90;;;;;;4916804;29;20229;-85
2023/05/13 04:57:37;;;;;;;;;;;;;;;;;;;;;
2023/05/13 05:01:21;;;;;;;81.13;21.37;;;13.30;99.90;;;;;;4878216;29;20392;-85
2023/05/13 05:08:29;;;;;;;;;;;;;;;;;;;;;
2023/05/13 05:21:20;;;;;;;93.33;25.17;;;13.70;99.90;;;;;;4804719;29;20996;-85
2023/05/13 05:31:45;;;;;;;;;;;;;;;;;;;;;
2023/05/13 05:34:32;;;;;;;86.40;27.90;;;13.60;99.90;;;;;;4804829;29;20471;-85
2023/05/13 05:37:47;;;;;;;91.60;30.47;;;13.60;99.90;;;;;;4827533;29;20442;-85
2023/05/13 05:40:26;;;;;;;85.67;27.03;;;13.60;99.90;;;;;;4785760;29;20503;-85
2023/05/13 05:43:13;;;;;;;86.97;26.07;;;13.70;99.90;;;;;;4856080;29;20417;-85
2023/05/13 05:45:41;;;;;;;92.57;29.27;;;13.80;99.90;;;;;;4915925;29;20949;-85
2023/05/13 05:48:22;;;;;;;85.10;26.30;;;13.80;99.90;;;;;;4916057;29;20421;-84
2023/05/13 05:55:07;;;;;;;85.13;21.67;;;14.00;99.90;;;;;;4864726;29;21028;-84
2023/05/13 05:57:54;;;;;;;;;;;;;;;;;;;;;
2023/05/13 06:00:43;;;;;;;84.87;19.90;;;14.20;99.90;;;;;;4877281;29;20415;-84
2023/05/13 06:03:46;;;;;;;88.17;22.33;;;14.20;99.90;;;;;;4878486;29;20925;-84
2023/05/13 06:13:09;;;;;;;88.47;21.77;;;14.30;99.90;;;;;;4881710;29;20434;-85
2023/05/13 06:20:37;;;;;;;87.43;20.23;;;14.50;99.90;;;;;;4781220;29;20495;-85
2023/05/13 06:23:21;;;;;;;;;;;;;;;;;;;;;
2023/05/13 06:30:40;;;;;;;;;;;;;;;;;;;;;
2023/05/13 06:34:07;;;;;;;83.07;20.37;;;14.60;99.90;;;;;;4754018;30;20428;-84
2023/05/13 06:37:10;;;;;;;85.10;21.77;;;14.70;99.90;;;;;;4666277;30;20458;-85
2023/05/13 06:42:28;;;;;;;92.30;20.80;;;14.70;99.90;;;;;;4750835;29;20937;-85
2023/05/13 06:44:59;;;;;;;83.37;19.70;;;14.90;99.90;;;;;;4881347;29;20422;-85
2023/05/13 06:48:15;;;;;;;83.20;20.97;;;14.90;99.90;;;;;;4901446;29;20426;-85
2023/05/13 06:50:54;;;;;;;84.37;19.77;;;14.90;99.90;;;;;;4901368;29;20390;-85
2023/05/13 06:53:41;;;;;;;85.77;21.37;;;14.90;99.90;;;;;;4901263;29;20390;-85
2023/05/13 06:56:54;;;;;;;86.80;22.07;;;15.00;99.90;;;;;;4901527;29;20431;-85
2023/05/13 07:01:15;;;;;;;84.03;20.30;;;15.10;99.90;;;;;;4899153;29;20497;-85
2023/05/13 07:04:04;;;;;;;86.37;19.07;;;15.20;99.90;;;;;;4814563;29;20433;-85
2023/05/13 07:06:56;;;;;;;81.77;19.37;;;15.30;99.90;;;;;;4802328;29;20586;-85
2023/05/13 07:10:00;;;;;;;79.13;17.27;;;15.30;99.90;;;;;;4843256;29;20986;-85
2023/05/13 07:13:07;;;;;;;79.33;16.23;;;15.30;99.90;;;;;;4788685;30;20438;-85
2023/05/13 07:15:39;;;;;;;80.07;16.17;;;15.40;99.90;;;;;;4778804;30;20480;-85
2023/05/13 07:21:43;;;;;;;76.50;12.07;;;15.40;99.90;;;;;;4787982;29;20825;-85
2023/05/13 07:24:29;;;;;;;77.40;13.67;;;15.40;99.90;;;;;;4773405;30;20429;-85
2023/05/13 07:27:53;;;;;;;;;;;;;;;;;;;;;
2023/05/13 07:33:39;;;;;;;76.37;16.90;;;15.80;99.90;;;;;;4788359;30;20457;-85
2023/05/13 07:36:10;;;;;;;74.33;14.73;;;15.80;99.90;;;;;;4813854;29;20467;-85
2023/05/13 07:38:43;;;;;;;74.57;14.17;;;15.90;99.90;;;;;;4843072;29;20501;-84
2023/05/13 07:41:11;;;;;;;75.93;13.07;;;15.90;99.90;;;;;;4827634;29;20524;-84
2023/05/13 07:44:12;;;;;;;74.87;11.97;;;15.90;99.90;;;;;;4842818;29;20474;-84
2023/05/13 07:47:27;;;;;;;71.53;10.27;;;16.00;99.90;;;;;;4827875;29;20454;-85
2023/05/13 07:50:11;;;;;;;70.17;9.67;;;16.10;99.90;;;;;;4872592;29;20432;-84
2023/05/13 07:52:37;;;;;;;72.07;9.83;;;16.10;94.30;;;;;;4900493;29;20463;-84
2023/05/13 07:55:06;;;;;;;72.07;9.10;;;16.20;96.30;;;;;;4900177;29;20467;-84
2023/05/13 07:57:33;;;;;;;70.20;9.70;;;16.10;74.40;;;;;;4899045;29;20286;-85
2023/05/13 08:00:03;;;;;;;73.10;9.00;;;16.10;88.40;;;;;;4900106;29;20919;-84
2023/05/13 08:02:50;;;;;;;70.80;9.47;;;16.20;85.40;;;;;;4898460;29;20457;-84
2023/05/13 08:05:21;;;;;;;71.10;9.17;;;16.20;90.60;;;;;;4898765;29;20422;-84
2023/05/13 08:07:55;;;;;;;70.93;8.50;;;16.30;68.90;;;;;;4900374;29;20389;-84
2023/05/13 08:10:21;;;;;;;71.43;9.20;;;16.30;70.10;;;;;;4899926;29;20428;-84
2023/05/13 08:12:56;;;;;;;69.80;8.97;;;16.30;65.60;;;;;;4898988;29;20431;-84
2023/05/13 08:15:32;;;;;;;72.80;8.60;;;16.40;72.20;;;;;;4898462;29;20201;-84
2023/05/13 08:18:03;;;;;;;69.90;8.60;;;16.50;63.40;;;;;;4898915;29;20408;-84
2023/05/13 08:20:52;;;;;;;70.07;8.90;;;16.70;69.40;;;;;;4900457;29;20396;-84
2023/05/13 08:23:18;;;;;;;71.87;9.77;;;16.90;76.20;;;;;;4899694;29;20413;-84
2023/05/13 08:25:48;;;;;;;70.40;13.40;;;17.10;60.20;;;;;;4899851;29;20428;-84
2023/05/13 08:28:17;;;;;;;75.97;14.93;;;17.10;29.60;;;;;;4898058;29;20240;-84
2023/05/13 08:31:01;;;;;;;73.83;14.30;;;17.20;17.50;;;;;;4899589;29;20410;-84
2023/05/13 08:33:34;;;;;;;71.10;12.37;;;17.30;26.70;;;;;;4897402;29;20415;-84
2023/05/13 08:36:00;;;;;;;72.07;14.00;;;17.50;21.90;;;;;;4900556;29;20433;-84
2023/05/13 08:38:28;;;;;;;73.00;13.33;;;17.60;15.20;;;;;;4900111;29;20407;-84
2023/05/13 08:41:09;;;;;;;70.80;11.43;;;17.80;20.20;;;;;;4899695;29;20898;-84
2023/05/13 08:43:37;;;;;;;70.40;9.30;;;18.00;20.10;;;;;;4900123;29;20466;-84
2023/05/13 08:46:11;;;;;;;70.43;8.87;;;18.20;13.50;;;;;;4899705;29;20453;-84
2023/05/13 08:48:43;;;;;;;69.00;7.70;;;18.30;14.00;;;;;;4899359;29;20399;-84
2023/05/13 08:51:08;;;;;;;71.60;8.30;;;18.10;1.00;;;;;;4899896;29;20387;-84
2023/05/13 08:53:39;;;;;;;70.07;7.63;;;18.10;4.40;;;;;;4899811;29;20409;-84
2023/05/13 08:56:13;;;;;;;72.30;7.80;;;18.20;3.40;;;;;;4899179;29;20201;-84
2023/05/13 08:58:44;;;;;;;69.57;8.00;;;18.10;1.00;;;;;;4899121;29;20383;-84
2023/05/13 09:01:25;;;;;;;70.50;8.47;;;18.10;1.00;;;;;;4898432;29;20461;-84
2023/05/13 09:04:02;;;;;;;80.93;8.20;;;18.10;17.50;;;;;;4897931;29;20457;-84
2023/05/13 09:06:50;;;;;;;69.10;7.00;;;18.20;15.20;;;;;;4898050;29;20963;-84
2023/05/13 09:09:18;;;;;;;72.20;7.50;;;18.30;12.70;;;;;;4899085;29;20485;-85
2023/05/13 09:11:47;;;;;;;71.33;8.37;;;18.30;4.70;;;;;;4899252;29;20393;-84
2023/05/13 09:14:20;;;;;;;76.07;7.70;;;18.40;2.00;;;;;;4898098;29;20454;-84
2023/05/13 09:16:47;;;;;;;70.80;8.47;;;18.40;10.20;;;;;;4897742;29;20465;-84
2023/05/13 09:19:16;;;;;;;73.80;7.70;;;18.50;11.30;;;;;;4977067;23;20503;-84
2023/05/13 09:21:48;;;;;;;71.17;7.60;;;18.60;5.80;;;;;;4940715;29;20418;-85
2023/05/13 09:24:17;;;;;;;72.87;8.10;;;18.70;1.00;;;;;;4940413;29;20428;-85
2023/05/13 09:26:44;;;;;;;70.20;7.00;;;18.80;1.00;;;;;;4925678;29;20430;-84
2023/05/13 09:29:13;;;;;;;69.90;7.73;;;18.90;1.00;;;;;;4925892;29;20427;-85
2023/05/13 09:31:38;;;;;;;70.60;8.83;;;18.90;1.00;;;;;;4925401;29;20417;-84
2023/05/13 09:34:04;;;;;;;70.73;8.77;;;19.10;1.00;;;;;;4927283;29;20461;-85
2023/05/13 09:36:31;;;;;;;72.30;9.23;;;19.10;1.00;;;;;;4926796;29;20272;-85
2023/05/13 09:38:57;;;;;;;68.87;7.77;;;19.30;1.00;;;;;;4927102;29;20217;-85
2023/05/13 09:41:27;;;;;;;73.63;10.63;;;19.40;1.00;;;;;;4926058;29;20414;-85
2023/05/13 09:43:53;;;;;;;72.80;9.00;;;19.60;1.00;;;;;;4927676;29;20385;-85
2023/05/13 09:46:20;;;;;;;71.03;10.40;;;19.70;1.00;;;;;;4927760;29;20489;-84
2023/05/13 09:48:46;;;;;;;71.70;10.00;;;19.80;1.00;;;;;;4924566;29;20426;-84
2023/05/13 09:51:13;;;;;;;70.67;10.13;;;20.00;1.00;;;;;;4927108;29;20457;-85
2023/05/13 09:53:40;;;;;;;73.47;10.77;;;20.20;1.00;;;;;;4924458;29;20629;-84
2023/05/13 09:56:09;;;;;;;72.30;11.67;;;20.30;1.00;;;;;;4908291;29;20473;-85
2023/05/13 09:58:34;;;;;;;73.33;11.40;;;20.40;1.00;;;;;;4908493;29;20414;-85
2023/05/13 10:01:01;;;;;;;72.07;11.00;;;20.40;1.00;;;;;;4907775;29;20445;-85
2023/05/13 10:03:28;;;;;;;71.27;12.70;;;20.60;1.00;;;;;;4907599;29;20170;-85
2023/05/13 10:05:55;;;;;;;73.23;13.20;;;20.70;1.00;;;;;;4906674;29;20555;-84
2023/05/13 10:08:22;;;;;;;74.90;13.90;;;21.00;1.00;;;;;;4907255;29;20410;-85
2023/05/13 10:10:52;;;;;;;71.27;11.20;;;21.10;1.00;;;;;;4907559;29;20467;-85
2023/05/13 10:13:22;;;;;;;71.47;8.10;;;21.20;1.00;;;;;;4907149;29;20403;-85
2023/05/13 10:15:53;;;;;;;71.53;9.73;;;21.00;1.00;;;;;;4906768;29;20439;-84
2023/05/13 10:18:20;;;;;;;74.67;8.60;;;21.10;1.00;;;;;;4906918;29;20434;-84
2023/05/13 10:20:46;;;;;;;69.97;7.97;;;21.20;1.00;;;;;;4907372;29;20448;-85
2023/05/13 10:23:15;;;;;;;75.10;9.93;;;21.30;1.00;;;;;;4906866;29;20492;-85
2023/05/13 10:25:43;;;;;;;71.17;8.23;;;21.20;1.00;;;;;;4906207;29;20447;-85
2023/05/13 10:28:09;;;;;;;72.80;9.10;;;21.10;1.00;;;;;;4906609;29;20419;-85
2023/05/13 10:30:35;;;;;;;73.93;9.30;;;20.80;1.00;;;;;;4905995;29;20797;-85
2023/05/13 10:33:02;;;;;;;74.07;12.80;;;20.70;1.00;;;;;;4906586;29;20405;-84
2023/05/13 10:35:33;;;;;;;76.57;13.07;;;20.70;1.00;;;;;;4906164;29;21083;-84
2023/05/13 10:38:05;;;;;;;75.07;12.87;;;20.50;1.00;;;;;;4905176;29;20392;-85
2023/05/13 10:41:00;;;;;;;73.77;10.77;;;20.70;1.00;;;;;;4905021;29;20416;-84
2023/05/13 10:43:28;;;;;;;79.90;9.53;;;20.90;1.00;;;;;;4856613;29;20416;-84
2023/05/13 10:49:33;;;;;;;71.20;9.00;;;21.00;1.00;;;;;;4890218;29;20428;-84
2023/05/13 10:52:13;;;;;;;76.70;13.80;;;21.00;1.00;;;;;;4904456;29;20870;-84
2023/05/13 10:54:40;;;;;;;76.30;12.40;;;21.10;1.00;;;;;;4905028;29;20503;-84
2023/05/13 10:57:07;;;;;;;78.00;9.90;;;21.10;1.00;;;;;;4908167;29;20488;-84
2023/05/13 10:59:35;;;;;;;73.70;11.90;;;21.00;1.00;;;;;;4908664;29;20494;-84
2023/05/13 11:02:23;;;;;;;70.60;9.30;;;21.00;1.00;;;;;;4907485;29;20411;-84
2023/05/13 11:05:00;;;;;;;73.83;10.77;;;20.90;1.00;;;;;;4906984;29;20404;-84
2023/05/13 11:07:29;;;;;;;72.23;9.70;;;20.80;1.00;;;;;;4905482;29;20448;-84
2023/05/13 11:09:55;;;;;;;78.40;9.90;;;20.70;1.00;;;;;;4905585;29;20454;-84
2023/05/13 11:12:21;;;;;;;71.60;9.00;;;20.70;1.00;;;;;;4904963;29;20446;-84
2023/05/13 11:14:46;;;;;;;73.87;9.80;;;20.70;1.00;;;;;;4905404;29;20187;-84
2023/05/13 11:17:17;;;;;;;73.83;10.67;;;20.60;1.00;;;;;;4905814;29;20586;-84
2023/05/13 11:19:52;;;;;;;71.77;9.77;;;20.60;1.00;;;;;;4904463;29;20438;-84
2023/05/13 11:22:25;;;;;;;71.00;11.60;;;20.50;1.00;;;;;;4905524;29;20387;-84
2023/05/13 11:25:16;;;;;;;76.27;14.00;;;20.60;1.00;;;;;;4905358;29;20457;-84
2023/05/13 11:27:42;;;;;;;72.20;12.07;;;20.70;1.00;;;;;;4902149;29;20447;-84
2023/05/13 11:30:23;;;;;;;68.50;6.63;;;20.60;1.00;;;;;;4903793;29;20462;-84
2023/05/13 11:33:02;;;;;;;69.80;7.17;;;20.50;1.00;;;;;;4905952;29;20159;-84
2023/05/13 11:35:55;;;;;;;72.50;5.97;;;20.40;1.00;;;;;;4904345;29;20456;-84
2023/05/13 11:38:23;;;;;;;70.57;5.57;;;19.90;1.00;;;;;;4903286;29;20403;-84
2023/05/13 11:40:50;;;;;;;68.00;5.13;;;19.10;1.00;;;;;;4902936;29;20973;-83
2023/05/13 11:43:22;;;;;;;66.40;5.47;;;18.50;1.00;;;;;;4903779;29;20403;-83
2023/05/13 11:45:49;;;;;;;67.10;7.43;;;18.00;1.00;;;;;;4902991;29;20434;-82
2023/05/13 11:48:20;;;;;;;66.73;5.87;;;17.40;3.70;;;;;;4901363;29;20461;-82
2023/05/13 11:50:52;;;;;;;66.73;4.63;;;17.10;30.90;;;;;;4901633;29;20854;-81
2023/05/13 11:53:21;;;;;;;70.77;8.33;;;16.80;61.40;;;;;;4902128;29;20531;-80
2023/05/13 11:55:47;;;;;;;71.83;11.67;;;16.40;90.00;;;;;;4901417;29;20484;-81
2023/05/13 11:58:16;;;;;;;74.23;22.10;;;16.30;99.90;;;;;;4901056;29;20485;-82
2023/05/13 12:00:42;;;;;;;72.10;19.90;;;16.20;99.90;;;;;;4902530;29;20421;-82
2023/05/13 12:03:13;;;;;;;71.77;19.43;;;16.00;99.90;;;;;;4902388;29;20421;-82
2023/05/13 12:05:39;;;;;;;72.43;16.40;;;16.10;99.90;;;;;;4900555;29;20438;-82
2023/05/13 12:08:08;;;;;;;71.87;11.30;;;16.10;99.90;;;;;;4901302;29;20418;-82
2023/05/13 12:10:34;;;;;;;69.50;10.20;;;16.10;99.90;;;;;;4901992;29;20189;-82
2023/05/13 12:13:00;;;;;;;76.70;8.00;;;16.00;99.90;;;;;;4901371;29;20438;-81
2023/05/13 12:15:27;;;;;;;67.47;7.57;;;16.10;99.90;;;;;;4901516;29;20880;-81
2023/05/13 12:17:53;;;;;;;68.07;6.40;;;16.10;99.90;;;;;;4902251;29;20902;-82
2023/05/13 12:20:22;;;;;;;69.60;7.80;;;16.10;99.90;;;;;;4901714;29;20523;-82
2023/05/13 12:22:51;;;;;;;70.90;12.17;;;16.20;99.90;;;;;;4900760;29;20782;-82
2023/05/13 12:25:40;;;;;;;71.47;17.80;;;16.20;99.90;;;;;;4901373;29;20500;-82
2023/05/13 12:28:09;;;;;;;72.20;22.47;;;16.30;99.90;;;;;;4901498;29;20769;-82
2023/05/13 12:30:37;;;;;;;73.50;21.87;;;16.40;99.90;;;;;;4903310;29;20402;-82
2023/05/13 12:33:05;;;;;;;75.00;22.13;;;16.60;99.90;;;;;;4904282;29;20452;-82
2023/05/13 12:35:32;;;;;;;73.30;22.10;;;16.70;99.90;;;;;;4903955;29;20540;-82
2023/05/13 12:38:00;;;;;;;75.20;23.03;;;16.90;99.90;;;;;;4902823;29;20469;-82
2023/05/13 12:40:26;;;;;;;74.77;17.20;;;17.10;99.90;;;;;;4902732;29;20439;-82
2023/05/13 12:42:55;;;;;;;70.37;7.13;;;16.80;99.90;;;;;;4903231;29;20406;-82
2023/05/13 12:45:21;;;;;;;69.13;7.30;;;16.80;99.90;;;;;;4904053;29;20169;-82
2023/05/13 12:47:50;;;;;;;69.33;6.63;;;16.60;99.90;;;;;;4903331;29;20796;-82
2023/05/13 12:50:15;;;;;;;66.80;7.93;;;16.40;99.90;;;;;;4903605;29;20517;-82
2023/05/13 12:52:41;;;;;;;69.90;7.90;;;16.40;84.60;;;;;;4901950;29;20427;-82
2023/05/13 12:55:07;;;;;;;70.20;7.87;;;16.30;70.70;;;;;;4903780;29;20196;-82
2023/05/13 12:57:33;;;;;;;68.17;7.97;;;16.50;92.00;;;;;;4902913;29;20268;-82
2023/05/13 12:59:59;;;;;;;66.90;7.37;;;16.70;94.50;;;;;;4903077;29;20413;-82
2023/05/13 13:02:24;;;;;;;67.50;7.30;;;16.60;87.00;;;;;;4903082;29;20255;-82
2023/05/13 13:04:50;;;;;;;66.90;6.17;;;16.70;89.80;;;;;;4902796;29;20173;-82
2023/05/13 13:07:16;;;;;;;70.50;10.70;;;17.00;93.30;;;;;;4902052;29;20199;-82
2023/05/13 13:09:41;;;;;;;71.60;19.77;;;17.40;99.90;;;;;;4902316;29;20174;-82
2023/05/13 13:12:07;;;;;;;68.27;7.37;;;17.70;99.90;;;;;;4901612;29;20173;-82
2023/05/13 13:14:33;;;;;;;69.77;10.53;;;18.10;99.90;;;;;;4901009;29;20624;-82
2023/05/13 13:16:58;;;;;;;69.40;14.57;;;18.60;70.70;;;;;;4901406;29;20233;-82
2023/05/13 13:19:24;;;;;;;70.00;15.23;;;19.10;48.40;;;;;;4899617;29;20182;-82
2023/05/13 13:21:50;;;;;;;68.37;6.47;;;19.50;52.30;;;;;;4901474;29;20222;-82
2023/05/13 13:24:15;;;;;;;67.60;7.00;;;19.90;3.60;;;;;;4901830;29;20687;-82
2023/05/13 13:26:41;;;;;;;66.67;4.80;;;20.10;1.00;;;;;;4902597;29;20186;-83
2023/05/13 13:29:10;;;;;;;67.60;7.33;;;20.40;6.10;;;;;;4903943;29;20185;-83
2023/05/13 13:31:36;;;;;;;70.37;6.47;;;20.80;19.30;;;;;;4904528;29;20653;-83
2023/05/13 13:34:03;;;;;;;67.10;5.60;;;21.00;1.00;;;;;;4904340;29;20439;-84
2023/05/13 13:36:32;;;;;;;67.87;7.10;;;21.20;1.00;;;;;;4904090;29;20249;-84
2023/05/13 13:38:58;;;;;;;67.10;5.30;;;21.30;1.00;;;;;;4902680;29;20416;-83
2023/05/13 13:41:25;;;;;;;66.77;6.50;;;21.50;1.00;;;;;;4904607;29;20964;-84
2023/05/13 13:43:50;;;;;;;68.63;8.50;;;21.80;1.00;;;;;;4903336;29;20176;-84
2023/05/13 13:46:16;;;;;;;68.70;8.27;;;22.00;1.00;;;;;;4904545;29;20429;-84
2023/05/13 13:48:42;;;;;;;70.80;8.33;;;22.10;1.00;;;;;;4905424;29;20263;-85
2023/05/13 13:51:07;;;;;;;70.70;7.53;;;22.30;1.00;;;;;;4906659;29;20409;-85
2023/05/13 13:53:33;;;;;;;68.93;7.23;;;22.40;1.00;;;;;;4907489;29;20174;-85
2023/05/13 13:55:59;;;;;;;68.23;8.43;;;22.30;1.00;;;;;;4907601;29;20210;-84
2023/05/13 13:58:25;;;;;;;67.13;6.10;;;22.40;1.00;;;;;;4978585;23;21492;-84
2023/05/13 14:00:51;;;;;;;68.77;9.50;;;22.50;1.00;;;;;;4901721;29;20168;-84
2023/05/13 14:03:17;;;;;;;68.27;9.03;;;22.30;1.00;;;;;;4902919;29;20572;-84
2023/05/13 14:05:43;;;;;;;69.57;7.97;;;22.30;1.00;;;;;;4902526;29;20458;-84
2023/05/13 14:08:09;;;;;;;67.57;5.73;;;22.40;1.00;;;;;;4902723;29;20410;-84
2023/05/13 14:10:35;;;;;;;70.13;4.57;;;22.50;1.00;;;;;;4902878;29;20584;-84
2023/05/13 14:13:01;;;;;;;68.70;5.20;;;22.60;1.00;;;;;;4902705;29;20402;-85
2023/05/13 14:15:29;;;;;;;67.77;5.10;;;22.70;1.00;;;;;;4900375;29;20198;-84
2023/05/13 14:17:55;;;;;;;67.00;5.10;;;22.60;1.00;;;;;;4901355;29;20173;-85
2023/05/13 14:20:21;;;;;;;67.50;5.10;;;22.70;1.00;;;;;;4901767;29;20481;-84
2023/05/13 14:22:47;;;;;;;67.73;4.40;;;22.80;1.00;;;;;;4899979;29;20407;-84
2023/05/13 14:25:13;;;;;;;68.47;5.50;;;23.00;1.00;;;;;;4901862;29;20602;-84
2023/05/13 14:27:39;;;;;;;68.03;5.53;;;23.10;1.00;;;;;;4900693;29;20456;-84
2023/05/13 14:30:05;;;;;;;67.27;5.67;;;23.30;1.00;;;;;;4900957;29;20929;-84
2023/05/13 14:32:32;;;;;;;68.40;6.60;;;23.40;1.00;;;;;;4903055;29;20406;-84
2023/05/13 14:34:57;;;;;;;69.50;6.67;;;23.50;1.00;;;;;;4904277;29;20446;-84
2023/05/13 14:37:23;;;;;;;69.50;6.77;;;23.10;1.00;;;;;;4903961;29;20434;-84
2023/05/13 14:39:49;;;;;;;68.27;6.73;;;23.00;1.00;;;;;;4904536;29;20249;-84
2023/05/13 14:42:18;;;;;;;67.57;5.80;;;22.50;1.00;;;;;;4904359;29;20214;-84
2023/05/13 14:44:43;;;;;;;67.47;5.93;;;21.60;1.00;;;;;;4904037;29;20190;-84
2023/05/13 14:47:09;;;;;;;68.53;6.17;;;21.70;1.00;;;;;;4904491;29;20430;-84
2023/05/13 14:49:35;;;;;;;67.73;6.63;;;21.60;1.00;;;;;;4902960;29;20174;-85
2023/05/13 14:52:00;;;;;;;68.23;6.17;;;21.10;1.00;;;;;;4902595;29;20428;-85
2023/05/13 14:54:26;;;;;;;71.47;6.67;;;21.00;1.00;;;;;;4903859;29;20225;-84
2023/05/13 14:56:52;;;;;;;68.37;7.03;;;20.80;1.00;;;;;;4904324;29;20245;-84
2023/05/13 14:59:18;;;;;;;67.30;7.17;;;20.90;1.00;;;;;;4902642;29;20192;-84
2023/05/13 15:01:44;;;;;;;70.23;7.23;;;21.20;1.00;;;;;;4904298;29;20173;-84
2023/05/13 15:04:10;;;;;;;67.90;6.53;;;21.40;1.00;;;;;;4903618;29;20404;-84
2023/05/13 15:06:39;;;;;;;69.80;6.63;;;21.90;1.00;;;;;;4903858;29;20775;-84
2023/05/13 15:09:05;;;;;;;68.67;7.03;;;22.50;1.00;;;;;;4903346;29;20193;-84
2023/05/13 15:11:32;;;;;;;69.07;7.67;;;22.80;1.00;;;;;;4903907;29;20414;-85
2023/05/13 15:13:57;;;;;;;69.23;5.20;;;22.80;1.00;;;;;;4903270;29;20468;-85
2023/05/13 15:16:23;;;;;;;68.47;5.17;;;23.10;1.00;;;;;;4903178;29;20430;-85
2023/05/13 15:18:58;;;;;;;68.13;4.60;;;23.40;1.00;;;;;;4970081;23;20241;-84
2023/05/13 15:21:23;;;;;;;67.90;5.00;;;23.40;1.00;;;;;;4900343;29;20621;-85
2023/05/13 15:23:58;;;;;;;68.30;7.43;;;23.30;1.00;;;;;;4901361;29;20459;-84
2023/05/13 15:26:23;;;;;;;69.23;7.10;;;22.90;1.00;;;;;;4899772;29;20189;-84
2023/05/13 15:28:52;;;;;;;68.47;6.13;;;22.80;1.00;;;;;;4900001;29;20934;-86
2023/05/13 15:34:32;;;;;;;67.90;6.37;;;22.40;1.00;;;;;;4874352;29;20980;-85
2023/05/13 15:37:28;;;;;;;70.30;7.57;;;22.70;1.00;;;;;;4901215;29;20961;-85
2023/05/13 15:40:58;;;;;;;68.80;7.40;;;23.00;1.00;;;;;;4900801;29;20417;-84
2023/05/13 15:46:11;;;;;;;67.60;6.10;;;22.80;1.00;;;;;;4891257;29;20950;-86
2023/05/13 15:48:37;;;;;;;67.70;5.10;;;22.10;1.00;;;;;;4901725;29;20407;-84
2023/05/13 15:51:40;;;;;;;;;;;;;;;;;;;;;
2023/05/13 15:54:32;;;;;;;67.90;5.27;;;21.00;1.00;;;;;;4901157;29;20646;-84
2023/05/13 15:57:38;;;;;;;67.87;5.03;;;20.90;1.00;;;;;;4900219;29;20514;-87
2023/05/13 16:03:47;;;;;;;67.37;5.63;;;20.30;1.00;;;;;;4788261;30;20418;-86
2023/05/13 16:06:13;;;;;;;69.23;5.40;;;20.30;1.00;;;;;;4772973;30;20443;-87
2023/05/13 16:09:15;;;;;;;;;;;;;;;;;;;;;
2023/05/13 16:11:50;;;;;;;68.27;6.37;;;20.40;1.00;;;;;;4788293;30;20415;-88
2023/05/13 16:14:22;;;;;;;68.37;6.07;;;20.40;1.00;;;;;;4884984;29;20505;-87
2023/05/13 16:17:28;;;;;;;71.20;4.83;;;20.30;1.00;;;;;;4900425;29;20520;-84
2023/05/13 16:26:56;;;;;;;68.07;5.57;;;20.70;1.00;;;;;;4806893;29;20502;-84
2023/05/13 16:30:05;;;;;;;69.53;5.90;;;21.50;1.00;;;;;;4853399;29;20477;-86
2023/05/13 16:37:23;;;;;;;70.20;5.47;;;22.00;1.00;;;;;;4900171;29;20484;-86
2023/05/13 16:39:53;;;;;;;68.20;4.90;;;21.60;1.00;;;;;;4889763;29;20444;-86
2023/05/13 16:43:20;;;;;;;;;;;;;;;;;;;;;
2023/05/13 16:52:13;;;;;;;;;;;;;;;;;;;;;
2023/05/13 17:07:58;;;;;;;68.47;7.63;;;19.90;1.00;;;;;;4897851;29;20474;-84
2023/05/13 17:10:23;;;;;;;70.90;8.17;;;19.90;1.00;;;;;;4901049;29;20489;-84
2023/05/13 17:12:49;;;;;;;68.57;8.73;;;19.90;1.00;;;;;;4899278;29;20173;-85
2023/05/13 17:15:15;;;;;;;67.37;6.53;;;19.90;1.00;;;;;;4899363;29;20568;-84
2023/05/13 17:17:41;;;;;;;68.50;6.80;;;19.90;1.00;;;;;;4897927;29;20418;-84
2023/05/13 17:20:07;;;;;;;70.03;7.80;;;19.90;1.00;;;;;;4898838;29;20163;-84
2023/05/13 17:22:33;;;;;;;69.27;7.20;;;19.90;1.00;;;;;;4897439;29;20184;-84
2023/05/13 17:24:58;;;;;;;67.77;6.77;;;19.90;1.00;;;;;;4897900;29;20418;-84
2023/05/13 17:27:24;;;;;;;70.10;7.87;;;19.80;1.00;;;;;;4897831;29;20194;-85
2023/05/13 17:29:50;;;;;;;68.20;7.07;;;19.90;1.00;;;;;;4897099;29;20191;-84
2023/05/13 17:32:15;;;;;;;67.90;7.40;;;19.80;1.00;;;;;;4898895;29;20159;-84
2023/05/13 17:34:41;;;;;;;68.77;7.93;;;19.70;1.00;;;;;;4898986;29;20194;-84
2023/05/13 17:37:06;;;;;;;68.30;7.60;;;19.70;1.00;;;;;;4898408;29;20238;-84
2023/05/13 17:39:32;;;;;;;67.90;7.30;;;19.60;1.00;;;;;;4898876;29;20576;-84
2023/05/13 17:41:58;;;;;;;67.97;7.53;;;19.40;1.00;;;;;;4897236;29;20197;-84
2023/05/13 17:44:26;;;;;;;69.07;7.10;;;19.20;99.90;;;;;;4898990;29;20702;-84
2023/05/13 17:46:55;;;;;;;67.00;6.13;;;19.10;99.90;;;;;;4898350;29;20227;-85
2023/05/13 17:49:20;;;;;;;69.17;6.63;;;19.10;99.90;;;;;;4899084;29;20899;-84
2023/05/13 17:51:46;;;;;;;68.00;6.00;;;19.10;99.90;;;;;;4897934;29;20427;-84
2023/05/13 17:54:12;;;;;;;69.10;5.50;;;19.10;99.90;;;;;;4898484;29;20193;-84
2023/05/13 17:56:38;;;;;;;67.17;5.00;;;19.20;99.90;;;;;;4896893;29;20298;-85
2023/05/13 17:59:06;;;;;;;68.20;5.70;;;19.20;1.00;;;;;;4896971;29;20504;-84
2023/05/13 18:01:36;;;;;;;69.73;7.17;;;19.20;1.00;;;;;;4897032;29;20310;-84
2023/05/13 18:04:02;;;;;;;69.70;6.77;;;19.10;99.90;;;;;;4898639;29;20384;-85
2023/05/13 18:06:31;;;;;;;69.97;7.30;;;19.10;99.90;;;;;;4897587;29;20447;-85
2023/05/13 18:08:56;;;;;;;68.27;6.93;;;19.00;1.00;;;;;;4898201;29;20254;-85
2023/05/13 18:11:22;;;;;;;70.60;7.47;;;18.90;99.90;;;;;;4896949;29;20891;-85
2023/05/13 18:13:48;;;;;;;67.80;6.90;;;18.90;44.10;;;;;;4896880;29;20201;-85
2023/05/13 18:16:13;;;;;;;68.67;8.60;;;19.00;99.90;;;;;;4898032;29;20550;-85
2023/05/13 18:18:39;;;;;;;67.93;6.70;;;18.90;1.00;;;;;;4898247;29;20166;-85
2023/05/13 18:21:05;;;;;;;67.67;7.60;;;18.80;46.80;;;;;;4896904;29;20170;-85